createdAt,value
2019-01-12T00:01:45.107Z,76.60
2019-01-12T00:04:14.152Z,76.93
2019-01-12T00:06:43.091Z,76.91
2019-01-12T00:09:12.353Z,76.62
2019-01-12T00:11:40.835Z,76.87
2019-01-12T00:14:09.186Z,77.44
2019-01-12T00:16:37.508Z,77.67
2019-01-12T00:19:05.879Z,77.44
2019-01-12T00:21:34.208Z,77.36
2019-01-12T00:24:02.583Z,77.18
2019-01-12T00:26:30.925Z,77.68
2019-01-12T00:28:59.320Z,77.60
2019-01-12T00:31:27.670Z,77.88
2019-01-12T00:33:56.489Z,77.64
2019-01-12T00:36:24.885Z,77.53
2019-01-12T00:38:54.232Z,78.07
2019-01-12T00:41:23.583Z,78.47
2019-01-12T00:43:52.882Z,78.20
2019-01-12T00:46:22.285Z,78.30
2019-01-12T00:48:50.929Z,77.77
2019-01-12T00:51:19.397Z,77.82
2019-01-12T00:53:47.714Z,78.13
2019-01-12T00:56:16.732Z,77.52
2019-01-12T00:58:45.084Z,77.94
2019-01-12T01:01:13.696Z,78.00
2019-01-12T01:03:42.300Z,77.45
2019-01-12T01:06:10.708Z,77.91
2019-01-12T01:08:39.105Z,77.45
2019-01-12T01:11:07.516Z,77.56
2019-01-12T01:13:35.915Z,77.65
2019-01-12T01:16:04.749Z,77.45
2019-01-12T01:18:33.110Z,77.15
2019-01-12T01:21:02.303Z,77.21
2019-01-12T01:23:30.900Z,77.25
2019-01-12T01:25:59.284Z,77.37
2019-01-12T01:28:27.605Z,77.46
2019-01-12T01:30:56.076Z,77.52
2019-01-12T01:33:28.072Z,77.14
2019-01-12T01:35:54.794Z,78.12
2019-01-12T01:38:23.157Z,77.51
2019-01-12T01:40:51.624Z,77.61
2019-01-12T01:43:21.697Z,77.84
2019-01-12T01:45:51.058Z,77.64
2019-01-12T01:48:20.874Z,78.16
2019-01-12T01:50:49.521Z,77.20
2019-01-12T01:53:18.794Z,77.44
2019-01-12T01:55:47.259Z,77.39
2019-01-12T01:58:15.962Z,76.77
2019-01-12T02:00:44.547Z,76.99
2019-01-12T02:03:14.015Z,77.60
2019-01-12T02:05:42.394Z,77.49
2019-01-12T02:08:10.729Z,77.13
2019-01-12T02:10:39.138Z,77.28
2019-01-12T02:13:07.472Z,77.66
2019-01-12T02:15:35.801Z,77.57
2019-01-12T02:18:04.496Z,77.14
2019-01-12T02:20:32.818Z,77.29
2019-01-12T02:23:01.182Z,77.27
2019-01-12T02:25:29.506Z,77.28
2019-01-12T02:27:57.849Z,77.58
2019-01-12T02:30:26.260Z,77.67
2019-01-12T02:32:54.631Z,77.30
2019-01-12T02:35:23.298Z,77.40
2019-01-12T02:37:51.762Z,77.00
2019-01-12T02:40:20.107Z,77.27
2019-01-12T02:42:48.456Z,77.96
2019-01-12T02:45:17.550Z,77.46
2019-01-12T02:47:45.891Z,77.47
2019-01-12T02:50:14.849Z,78.08
2019-01-12T02:52:43.200Z,78.47
2019-01-12T02:55:11.664Z,77.84
2019-01-12T02:57:40.244Z,78.57
2019-01-12T03:00:13.329Z,77.71
2019-01-12T03:02:41.717Z,77.83
2019-01-12T03:05:10.205Z,78.18
2019-01-12T03:07:38.627Z,78.20
2019-01-12T03:10:09.995Z,77.59
2019-01-12T03:12:38.415Z,78.34
2019-01-12T03:15:10.234Z,78.00
2019-01-12T03:17:38.584Z,77.76
2019-01-12T03:20:11.257Z,78.52
2019-01-12T03:22:39.606Z,78.50
2019-01-12T03:25:08.177Z,78.17
2019-01-12T03:27:36.639Z,78.13
2019-01-12T03:30:08.637Z,78.89
2019-01-12T03:32:37.080Z,78.44
2019-01-12T03:35:06.071Z,78.87
2019-01-12T03:37:34.442Z,79.09
2019-01-12T03:40:03.902Z,78.93
2019-01-12T03:42:32.268Z,79.47
2019-01-12T03:45:00.578Z,79.08
2019-01-12T03:47:28.955Z,79.08
2019-01-12T03:49:57.285Z,79.08
2019-01-12T03:52:25.617Z,79.28
2019-01-12T03:54:53.956Z,79.31
2019-01-12T03:57:22.270Z,78.94
2019-01-12T03:59:50.621Z,79.23
2019-01-12T04:02:19.004Z,78.81
2019-01-12T04:04:47.325Z,79.15
2019-01-12T04:07:16.122Z,78.81
2019-01-12T04:09:44.562Z,78.76
2019-01-12T04:12:13.291Z,78.53
2019-01-12T04:14:41.692Z,79.06
2019-01-12T04:17:10.005Z,79.22
2019-01-12T04:19:38.350Z,78.89
2019-01-12T04:22:06.714Z,79.16
2019-01-12T04:24:35.067Z,78.97
2019-01-12T04:27:03.409Z,78.97
2019-01-12T04:29:31.780Z,78.74
2019-01-12T04:32:00.128Z,78.83
2019-01-12T04:34:28.492Z,78.71
2019-01-12T04:36:56.833Z,78.48
2019-01-12T04:39:25.272Z,78.59
2019-01-12T04:41:53.669Z,78.41
2019-01-12T04:44:22.020Z,78.93
2019-01-12T04:46:50.374Z,78.40
2019-01-12T04:49:18.675Z,78.17
2019-01-12T04:51:47.023Z,78.74
2019-01-12T04:54:15.631Z,79.01
2019-01-12T04:56:43.954Z,78.65
2019-01-12T04:59:12.524Z,78.75
2019-01-12T05:01:40.826Z,78.94
2019-01-12T05:04:09.191Z,79.08
2019-01-12T05:06:37.504Z,78.72
2019-01-12T05:09:07.103Z,78.02
2019-01-12T05:11:35.440Z,78.59
2019-01-12T05:14:03.926Z,79.25
2019-01-12T05:16:32.278Z,79.13
2019-01-12T05:19:00.602Z,79.02
2019-01-12T05:21:28.936Z,78.79
2019-01-12T05:23:57.278Z,78.99
2019-01-12T05:26:25.624Z,79.27
2019-01-12T05:28:54.583Z,79.07
2019-01-12T05:31:22.933Z,79.07
2019-01-12T05:33:51.267Z,79.33
2019-01-12T05:36:19.622Z,79.13
2019-01-12T05:38:48.029Z,78.98
2019-01-12T05:41:16.445Z,78.99
2019-01-12T05:43:44.783Z,79.16
2019-01-12T05:46:14.022Z,79.10
2019-01-12T05:48:42.327Z,78.64
2019-01-12T05:51:10.681Z,79.32
2019-01-12T05:53:39.024Z,79.44
2019-01-12T05:56:07.373Z,79.68
2019-01-12T05:58:35.708Z,78.58
2019-01-12T06:01:04.267Z,78.62
2019-01-12T06:03:32.611Z,78.41
2019-01-12T06:06:00.947Z,79.18
2019-01-12T06:08:29.290Z,79.19
2019-01-12T06:10:57.860Z,79.23
2019-01-12T06:13:26.236Z,79.26
2019-01-12T06:15:54.582Z,78.88
2019-01-12T06:18:22.975Z,78.05
2019-01-12T06:20:51.370Z,78.63
2019-01-12T06:23:19.708Z,78.76
2019-01-12T06:25:48.030Z,78.84
2019-01-12T06:28:16.644Z,79.27
2019-01-12T06:30:44.958Z,78.20
2019-01-12T06:33:13.745Z,77.58
2019-01-12T06:35:42.178Z,76.69
2019-01-12T06:38:10.508Z,77.34
2019-01-12T06:40:38.839Z,77.64
2019-01-12T06:43:07.186Z,77.42
2019-01-12T06:45:35.516Z,77.32
2019-01-12T06:48:03.943Z,77.43
2019-01-12T06:50:32.265Z,77.37
2019-01-12T06:53:00.617Z,77.03
2019-01-12T06:55:28.993Z,77.15
2019-01-12T06:57:57.307Z,76.72
2019-01-12T07:00:26.138Z,76.93
2019-01-12T07:02:56.982Z,77.64
2019-01-12T07:05:25.873Z,77.17
2019-01-12T07:07:54.213Z,77.09
2019-01-12T07:10:22.927Z,77.14
2019-01-12T07:12:52.072Z,77.65
2019-01-12T07:15:20.430Z,78.36
2019-01-12T07:17:50.026Z,77.97
2019-01-12T07:20:18.339Z,78.47
2019-01-12T07:22:47.091Z,78.75
2019-01-12T07:25:15.596Z,78.36
2019-01-12T07:27:44.057Z,78.97
2019-01-12T07:30:15.891Z,78.62
2019-01-12T07:32:44.254Z,78.83
2019-01-12T07:35:12.886Z,78.10
2019-01-12T07:37:41.362Z,78.11
2019-01-12T07:40:10.405Z,78.12
2019-01-12T07:42:38.746Z,77.79
2019-01-12T07:45:09.992Z,77.13
2019-01-12T07:47:39.078Z,76.53
2019-01-12T07:50:10.831Z,76.39
2019-01-12T07:52:39.619Z,76.28
2019-01-12T07:55:09.052Z,75.35
2019-01-12T07:57:37.571Z,75.76
2019-01-12T08:00:11.329Z,75.47
2019-01-12T08:02:39.807Z,75.32
2019-01-12T08:05:10.011Z,75.23
2019-01-12T08:07:40.534Z,75.47
2019-01-12T08:10:12.540Z,75.03
2019-01-12T08:12:41.040Z,74.75
2019-01-12T08:15:11.088Z,74.69
2019-01-12T08:17:39.467Z,74.21
2019-01-12T08:20:10.906Z,74.10
2019-01-12T08:22:39.355Z,73.91
2019-01-12T08:25:09.546Z,74.25
2019-01-12T08:27:38.051Z,73.85
2019-01-12T08:30:12.315Z,74.17
2019-01-12T08:32:40.696Z,73.99
2019-01-12T08:35:09.520Z,74.16
2019-01-12T08:37:37.837Z,74.07
2019-01-12T08:40:08.027Z,73.44
2019-01-12T08:42:36.323Z,72.45
2019-01-12T08:45:06.607Z,71.33
2019-01-12T08:47:34.949Z,70.69
2019-01-12T08:50:05.253Z,70.77
2019-01-12T08:52:33.572Z,69.75
2019-01-12T08:55:01.898Z,70.37
2019-01-12T08:57:30.227Z,70.18
2019-01-12T08:59:58.565Z,69.27
2019-01-12T09:02:26.898Z,70.38
2019-01-12T09:04:55.260Z,71.33
2019-01-12T09:07:23.607Z,71.57
2019-01-12T09:09:51.932Z,71.49
2019-01-12T09:12:20.281Z,71.42
2019-01-12T09:14:48.656Z,71.43
2019-01-12T09:17:17.185Z,71.44
2019-01-12T09:19:45.509Z,70.67
2019-01-12T09:22:13.864Z,70.71
2019-01-12T09:24:42.182Z,71.03
2019-01-12T09:27:10.561Z,70.59
2019-01-12T09:29:40.318Z,70.46
2019-01-12T09:32:09.590Z,70.57
2019-01-12T09:34:37.976Z,70.47
2019-01-12T09:37:06.375Z,69.96
2019-01-12T09:39:34.699Z,69.77
2019-01-12T09:42:03.055Z,68.92
2019-01-12T09:44:31.365Z,68.74
2019-01-12T09:46:59.715Z,70.60
2019-01-12T09:49:28.038Z,70.75
2019-01-12T09:51:56.389Z,70.11
2019-01-12T09:54:24.740Z,70.83
2019-01-12T09:56:53.078Z,71.73
2019-01-12T09:59:21.382Z,71.37
2019-01-12T10:01:49.839Z,72.04
2019-01-12T10:04:19.318Z,70.22
2019-01-12T10:06:47.685Z,69.93
2019-01-12T10:09:15.994Z,69.02
2019-01-12T10:11:44.356Z,68.95
2019-01-12T10:14:12.673Z,69.58
2019-01-12T10:16:41.000Z,70.27
2019-01-12T10:19:09.538Z,69.24
2019-01-12T10:21:37.968Z,68.88
2019-01-12T10:24:06.293Z,69.03
2019-01-12T10:26:34.682Z,69.63
2019-01-12T10:29:03.056Z,69.57
2019-01-12T10:31:31.386Z,69.31
2019-01-12T10:33:59.800Z,69.96
2019-01-12T10:36:28.172Z,69.36
2019-01-12T10:38:56.520Z,68.85
2019-01-12T10:41:24.921Z,69.17
2019-01-12T10:43:53.291Z,69.53
2019-01-12T10:46:21.681Z,68.84
2019-01-12T10:48:50.091Z,69.55
2019-01-12T10:51:18.473Z,69.67
2019-01-12T10:53:46.813Z,68.72
2019-01-12T10:56:15.113Z,69.37
2019-01-12T10:58:43.539Z,70.40
2019-01-12T11:01:13.156Z,70.72
2019-01-12T11:03:42.404Z,69.88
2019-01-12T11:06:12.003Z,69.65
2019-01-12T11:08:41.047Z,69.92
2019-01-12T11:11:11.234Z,69.61
2019-01-12T11:13:40.138Z,69.62
2019-01-12T11:16:10.203Z,69.11
2019-01-12T11:18:38.641Z,69.77
2019-01-12T11:21:07.277Z,69.75
2019-01-12T11:23:35.674Z,69.93
2019-01-12T11:26:04.093Z,69.88
2019-01-12T11:28:32.426Z,69.91
2019-01-12T11:31:00.790Z,69.42
2019-01-12T11:33:29.127Z,68.08
2019-01-12T11:35:57.564Z,68.28
2019-01-12T11:38:26.002Z,67.45
2019-01-12T11:40:54.336Z,67.70
2019-01-12T11:43:22.689Z,66.65
2019-01-12T11:45:51.048Z,66.87
2019-01-12T11:48:19.391Z,66.87
2019-01-12T11:50:47.739Z,66.42
2019-01-12T11:53:16.102Z,67.94
2019-01-12T11:55:44.535Z,68.79
2019-01-12T12:00:40.434Z,69.08
2019-01-12T12:03:08.843Z,69.64
2019-01-12T12:05:37.190Z,69.04
2019-01-12T12:08:05.660Z,68.96
2019-01-12T12:10:34.183Z,69.44
2019-01-12T12:13:02.552Z,69.28
2019-01-12T12:15:31.014Z,69.56
2019-01-12T12:17:59.382Z,70.15
2019-01-12T12:20:27.993Z,70.27
2019-01-12T12:22:56.516Z,70.61
2019-01-12T12:25:24.903Z,70.09
2019-01-12T12:27:53.355Z,69.51
2019-01-12T12:30:25.042Z,70.94
2019-01-12T12:32:53.508Z,70.42
2019-01-12T12:35:21.892Z,70.24
2019-01-12T12:37:50.463Z,69.65
2019-01-12T12:40:20.725Z,68.62
2019-01-12T12:42:49.143Z,69.26
2019-01-12T12:45:19.956Z,68.96
2019-01-12T12:47:48.443Z,68.77
2019-01-12T12:50:17.127Z,68.20
2019-01-12T12:52:45.758Z,69.18
2019-01-12T12:55:16.501Z,69.07
2019-01-12T12:57:44.922Z,69.20
2019-01-12T13:00:15.103Z,68.84
2019-01-12T13:02:43.594Z,68.78
2019-01-12T13:05:12.174Z,69.76
2019-01-12T13:07:40.577Z,69.12
2019-01-12T13:10:11.922Z,69.23
2019-01-12T13:12:40.370Z,69.01
2019-01-12T13:15:10.696Z,68.79
2019-01-12T13:17:39.248Z,68.86
2019-01-12T13:20:10.920Z,69.38
2019-01-12T13:22:39.558Z,70.33
2019-01-12T13:25:09.245Z,70.16
2019-01-12T13:27:39.949Z,69.54
2019-01-12T13:30:13.600Z,70.44
2019-01-12T13:32:42.069Z,71.04
2019-01-12T13:35:11.469Z,70.56
2019-01-12T13:37:39.837Z,69.72
2019-01-12T13:40:10.710Z,69.71
2019-01-12T13:42:39.101Z,69.21
2019-01-12T13:45:11.082Z,68.57
2019-01-12T13:47:40.448Z,68.53
2019-01-12T13:50:10.884Z,68.95
2019-01-12T13:52:39.240Z,68.07
2019-01-12T13:55:11.270Z,68.58
2019-01-12T13:57:47.091Z,68.62
2019-01-12T14:00:15.102Z,68.94
2019-01-12T14:02:43.524Z,69.09
2019-01-12T14:05:12.672Z,69.75
2019-01-12T14:07:40.998Z,69.98
2019-01-12T14:10:13.124Z,70.42
2019-01-12T14:12:41.498Z,70.82
2019-01-12T14:15:12.189Z,71.43
2019-01-12T14:17:40.588Z,71.91
2019-01-12T14:20:14.088Z,72.71
2019-01-12T14:22:42.496Z,73.27
2019-01-12T14:25:11.516Z,73.55
2019-01-12T14:27:39.851Z,73.21
2019-01-12T14:30:15.651Z,73.47
2019-01-12T14:32:43.306Z,72.63
2019-01-12T14:35:13.813Z,72.88
2019-01-12T14:37:42.358Z,72.87
2019-01-12T14:40:13.643Z,73.70
2019-01-12T14:42:42.049Z,73.84
2019-01-12T14:45:14.965Z,74.43
2019-01-12T14:47:43.454Z,74.14
2019-01-12T14:50:12.344Z,73.79
2019-01-12T14:52:40.724Z,74.13
2019-01-12T14:55:12.230Z,74.52
2019-01-12T14:57:40.652Z,75.08
2019-01-12T15:00:13.612Z,74.97
2019-01-12T15:02:42.111Z,74.29
2019-01-12T15:05:11.986Z,74.13
2019-01-12T15:07:40.502Z,74.65
2019-01-12T15:10:11.579Z,74.61
2019-01-12T15:12:39.961Z,74.91
2019-01-12T15:15:11.527Z,74.93
2019-01-12T15:17:39.957Z,75.80
2019-01-12T15:20:12.305Z,75.16
2019-01-12T15:22:40.682Z,75.15
2019-01-12T15:25:11.314Z,74.39
2019-01-12T15:27:39.686Z,74.43
2019-01-12T15:30:12.400Z,75.75
2019-01-12T15:32:40.786Z,75.12
2019-01-12T15:35:10.722Z,75.58
2019-01-12T15:37:39.015Z,76.16
2019-01-12T15:40:11.238Z,76.24
2019-01-12T15:42:39.568Z,76.48
2019-01-12T15:45:10.782Z,76.45
2019-01-12T15:47:39.113Z,76.66
2019-01-12T15:50:11.628Z,76.41
2019-01-12T15:52:40.057Z,75.90
2019-01-12T15:55:08.639Z,76.06
2019-01-12T15:57:40.005Z,75.79
2019-01-12T16:00:13.170Z,75.41
2019-01-12T16:02:41.972Z,75.71
2019-01-12T16:05:11.767Z,75.78
2019-01-12T16:07:40.165Z,75.43
2019-01-12T16:10:09.910Z,76.12
2019-01-12T16:12:38.353Z,75.87
2019-01-12T16:15:11.429Z,75.97
2019-01-12T16:17:42.164Z,76.40
2019-01-12T16:20:14.556Z,76.69
2019-01-12T16:22:42.932Z,76.69
2019-01-12T16:25:12.079Z,75.91
2019-01-12T16:27:40.564Z,76.55
2019-01-12T16:30:12.426Z,77.13
2019-01-12T16:32:40.923Z,77.17
2019-01-12T16:35:09.906Z,77.26
2019-01-12T16:37:38.314Z,77.24
2019-01-12T16:40:12.118Z,76.80
2019-01-12T16:42:41.030Z,76.92
2019-01-12T16:45:11.197Z,76.46
2019-01-12T16:47:40.082Z,77.09
2019-01-12T16:50:08.692Z,77.64
2019-01-12T16:52:37.672Z,77.92
2019-01-12T16:55:08.234Z,78.02
2019-01-12T16:57:37.191Z,78.14
2019-01-12T17:00:08.097Z,78.34
2019-01-12T17:02:36.513Z,79.20
2019-01-12T17:05:05.535Z,79.08
2019-01-12T17:07:33.941Z,78.88
2019-01-12T17:10:02.344Z,79.41
2019-01-12T17:12:30.706Z,78.87
2019-01-12T17:14:59.021Z,78.73
2019-01-12T17:17:27.358Z,78.54
2019-01-12T17:19:56.285Z,78.79
2019-01-12T17:22:24.706Z,79.39
2019-01-12T17:24:53.034Z,79.18
2019-01-12T17:27:22.034Z,79.13
2019-01-12T17:29:50.376Z,79.52
2019-01-12T17:32:18.876Z,79.57
2019-01-12T17:34:47.413Z,79.29
2019-01-12T17:37:15.739Z,79.03
2019-01-12T17:39:44.082Z,78.92
2019-01-12T17:42:12.728Z,78.93
2019-01-12T17:44:41.057Z,78.18
2019-01-12T17:47:09.380Z,77.98
2019-01-12T17:49:37.742Z,78.75
2019-01-12T17:52:06.133Z,78.60
2019-01-12T17:54:35.464Z,78.43
2019-01-12T17:57:04.580Z,78.39
2019-01-12T17:59:32.902Z,77.77
2019-01-12T18:02:01.239Z,78.21
2019-01-12T18:04:29.554Z,78.37
2019-01-12T18:06:57.892Z,78.11
2019-01-12T18:09:26.337Z,78.55
2019-01-12T18:11:54.662Z,78.17
2019-01-12T18:14:23.776Z,78.23
2019-01-12T18:16:52.265Z,78.37
2019-01-12T18:19:20.600Z,77.91
2019-01-12T18:21:48.916Z,77.78
2019-01-12T18:24:17.263Z,77.69
2019-01-12T18:26:45.584Z,78.27
2019-01-12T18:29:14.156Z,77.98
2019-01-12T18:31:42.628Z,77.75
2019-01-12T18:34:11.023Z,77.77
2019-01-12T18:36:40.417Z,78.06
2019-01-12T18:39:08.753Z,77.53
2019-01-12T18:41:37.075Z,78.01
2019-01-12T18:44:05.480Z,77.32
2019-01-12T18:46:34.540Z,77.50
2019-01-12T18:49:03.058Z,77.75
2019-01-12T18:51:31.364Z,77.21
2019-01-12T18:53:59.676Z,77.32
2019-01-12T18:56:28.016Z,77.11
2019-01-12T18:58:58.954Z,77.75
2019-01-12T19:01:26.787Z,77.37
2019-01-12T19:03:55.102Z,77.18
2019-01-12T19:06:23.444Z,77.41
2019-01-12T19:08:51.812Z,77.46
2019-01-12T19:11:20.169Z,77.84
2019-01-12T19:13:48.540Z,77.45
2019-01-12T19:16:16.861Z,77.00
2019-01-12T19:18:45.179Z,76.54
2019-01-12T19:21:14.283Z,76.91
2019-01-12T19:23:42.580Z,76.94
2019-01-12T19:26:11.038Z,77.17
2019-01-12T19:28:39.399Z,77.59
2019-01-12T19:31:07.720Z,77.82
2019-01-12T19:33:36.039Z,76.96
2019-01-12T19:36:04.517Z,77.07
2019-01-12T19:38:32.819Z,77.50
2019-01-12T19:41:01.221Z,77.09
2019-01-12T19:43:29.510Z,77.39
2019-01-12T19:45:57.845Z,77.45
2019-01-12T19:48:26.200Z,77.86
2019-01-12T19:50:54.545Z,77.79
2019-01-12T19:53:22.887Z,77.92
2019-01-12T19:55:51.214Z,77.86
2019-01-12T19:58:19.528Z,77.48
2019-01-12T20:00:47.857Z,77.01
2019-01-12T20:03:16.169Z,77.27
2019-01-12T20:05:44.489Z,77.65
2019-01-12T20:08:12.925Z,77.91
2019-01-12T20:10:41.339Z,77.81
2019-01-12T20:13:09.656Z,78.38
2019-01-12T20:15:37.974Z,78.10
2019-01-12T20:18:06.380Z,77.89
2019-01-12T20:20:35.179Z,77.89
2019-01-12T20:23:03.617Z,78.34
2019-01-12T20:25:32.032Z,77.54
2019-01-12T20:28:00.409Z,77.86
2019-01-12T20:30:36.192Z,78.02
2019-01-12T20:33:12.409Z,78.45
2019-01-12T20:35:42.993Z,77.55
2019-01-12T20:38:15.634Z,78.41
2019-01-12T20:40:50.516Z,78.30
2019-01-12T20:43:21.120Z,78.54
2019-01-12T20:45:53.962Z,78.19
2019-01-12T20:48:27.903Z,77.93
2019-01-12T20:51:00.593Z,78.07
2019-01-12T20:53:32.339Z,77.98
2019-01-12T20:56:06.903Z,77.51
2019-01-12T20:58:40.608Z,77.77
2019-01-12T21:01:13.801Z,77.80
2019-01-12T21:03:46.657Z,77.34
2019-01-12T21:06:19.353Z,77.71
2019-01-12T21:08:52.237Z,77.79
2019-01-12T21:11:24.972Z,77.27
2019-01-12T21:13:57.701Z,76.87
2019-01-12T21:16:27.698Z,77.16
2019-01-12T21:18:56.384Z,76.86
2019-01-12T21:21:24.732Z,77.11
2019-01-12T21:23:53.138Z,77.41
2019-01-12T21:26:21.469Z,77.73
2019-01-12T21:28:50.215Z,76.97
2019-01-12T21:31:18.976Z,77.56
2019-01-12T21:33:47.341Z,77.86
2019-01-12T21:36:16.168Z,77.82
2019-01-12T21:38:44.504Z,78.58
2019-01-12T21:41:12.839Z,77.79
2019-01-12T21:43:41.235Z,78.25
2019-01-12T21:46:09.623Z,77.75
2019-01-12T21:48:37.900Z,78.64
2019-01-12T21:51:06.357Z,77.84
2019-01-12T21:53:34.793Z,78.16
2019-01-12T21:56:03.343Z,78.36
2019-01-12T21:58:31.677Z,77.73
2019-01-12T22:01:00.275Z,77.56
2019-01-12T22:03:28.605Z,78.16
2019-01-12T22:05:56.921Z,78.35
2019-01-12T22:08:25.217Z,78.35
2019-01-12T22:10:53.631Z,78.09
2019-01-12T22:13:22.237Z,77.75
2019-01-12T22:15:50.575Z,78.38
2019-01-12T22:18:18.876Z,78.25
2019-01-12T22:20:47.209Z,79.22
2019-01-12T22:23:15.564Z,78.85
2019-01-12T22:25:43.901Z,78.37
2019-01-12T22:28:12.521Z,77.95
2019-01-12T22:30:40.825Z,77.65
2019-01-12T22:33:09.158Z,76.66
2019-01-12T22:35:37.532Z,76.86
2019-01-12T22:38:06.565Z,76.83
2019-01-12T22:40:34.962Z,76.58
2019-01-12T22:43:03.276Z,76.85
2019-01-12T22:45:31.626Z,77.13
2019-01-12T22:48:00.023Z,76.92
2019-01-12T22:50:28.337Z,76.91
2019-01-12T22:52:56.641Z,77.19
2019-01-12T22:55:25.288Z,77.06
2019-01-12T22:57:53.681Z,76.95
2019-01-12T23:00:25.030Z,76.70
2019-01-12T23:02:53.506Z,75.74
2019-01-12T23:05:21.987Z,75.47
2019-01-12T23:07:50.315Z,75.63
2019-01-12T23:10:18.658Z,75.34
2019-01-12T23:12:46.967Z,75.18
2019-01-12T23:15:16.709Z,75.14
2019-01-12T23:17:45.129Z,74.50
2019-01-12T23:20:14.059Z,74.38
2019-01-12T23:22:42.456Z,74.40
2019-01-12T23:25:10.909Z,75.22
2019-01-12T23:27:39.230Z,75.20
2019-01-12T23:30:14.091Z,76.02
2019-01-12T23:32:42.394Z,75.80
2019-01-12T23:35:11.445Z,75.37
2019-01-12T23:37:39.855Z,75.53
2019-01-12T23:40:09.321Z,74.92
2019-01-12T23:42:37.783Z,74.63
2019-01-12T23:45:08.928Z,74.97
2019-01-12T23:47:37.282Z,74.86
2019-01-12T23:50:09.092Z,74.85
2019-01-12T23:52:37.489Z,75.42
2019-01-12T23:55:06.146Z,75.46
2019-01-12T23:57:34.502Z,75.55
